createdAt,value
2019-02-09T00:00:41.816Z,13.60
2019-02-09T00:03:09.372Z,10.05
2019-02-09T00:05:36.908Z,9.48
2019-02-09T00:08:05.869Z,10.80
2019-02-09T00:10:33.416Z,9.98
2019-02-09T00:13:01.020Z,10.13
2019-02-09T00:15:28.579Z,10.40
2019-02-09T00:17:56.123Z,9.90
2019-02-09T00:20:23.684Z,11.30
2019-02-09T00:22:51.232Z,10.18
2019-02-09T00:25:22.126Z,10.95
2019-02-09T00:27:49.687Z,10.03
2019-02-09T00:30:17.996Z,10.08
2019-02-09T00:32:45.535Z,10.50
2019-02-09T00:35:17.858Z,10.08
2019-02-09T00:37:45.437Z,11.00
2019-02-09T00:40:14.535Z,10.30
2019-02-09T00:42:42.100Z,10.00
2019-02-09T00:45:16.702Z,10.05
2019-02-09T00:47:44.261Z,9.80
2019-02-09T00:50:13.368Z,11.30
2019-02-09T00:52:40.925Z,9.73
2019-02-09T00:55:10.081Z,9.38
2019-02-09T00:57:37.653Z,9.68
2019-02-09T01:00:09.478Z,10.40
2019-02-09T01:02:37.032Z,10.43
2019-02-09T01:05:05.468Z,8.18
2019-02-09T01:07:33.016Z,10.05
2019-02-09T01:10:00.556Z,9.20
2019-02-09T01:12:28.117Z,8.40
2019-02-09T01:14:55.661Z,8.80
2019-02-09T01:17:23.214Z,9.58
2019-02-09T01:19:50.762Z,9.30
2019-02-09T01:22:18.321Z,8.65
2019-02-09T01:24:45.883Z,8.15
2019-02-09T01:27:13.436Z,8.40
2019-02-09T01:29:41.001Z,8.75
2019-02-09T01:32:08.556Z,8.25
2019-02-09T01:34:36.114Z,8.70
2019-02-09T01:37:03.660Z,8.23
2019-02-09T01:39:31.201Z,8.50
2019-02-09T01:41:58.753Z,8.50
2019-02-09T01:44:26.297Z,8.88
2019-02-09T01:46:53.850Z,9.03
2019-02-09T01:49:21.407Z,8.68
2019-02-09T01:51:48.969Z,8.55
2019-02-09T01:54:16.513Z,8.08
2019-02-09T01:56:44.097Z,8.50
2019-02-09T01:59:11.647Z,8.10
2019-02-09T02:01:39.202Z,7.35
2019-02-09T02:04:06.757Z,8.63
2019-02-09T02:06:34.311Z,8.78
2019-02-09T02:09:01.865Z,9.83
2019-02-09T02:11:29.409Z,6.97
2019-02-09T02:13:56.973Z,8.05
2019-02-09T02:16:24.521Z,8.60
2019-02-09T02:18:52.076Z,7.78
2019-02-09T02:21:19.634Z,8.13
2019-02-09T02:23:47.182Z,9.50
2019-02-09T02:26:14.745Z,10.23
2019-02-09T02:28:42.284Z,7.40
2019-02-09T02:31:09.860Z,8.00
2019-02-09T02:33:37.403Z,8.40
2019-02-09T02:36:04.964Z,8.05
2019-02-09T02:38:32.521Z,8.58
2019-02-09T02:41:00.069Z,7.95
2019-02-09T02:43:27.629Z,8.30
2019-02-09T02:45:55.174Z,8.10
2019-02-09T02:48:22.723Z,7.22
2019-02-09T02:50:50.272Z,7.50
2019-02-09T02:53:17.825Z,7.45
2019-02-09T02:55:45.377Z,7.67
2019-02-09T02:58:12.926Z,7.80
2019-02-09T03:00:40.477Z,7.80
2019-02-09T03:03:08.024Z,7.30
2019-02-09T03:05:35.576Z,7.62
2019-02-09T03:08:03.130Z,7.95
2019-02-09T03:10:30.688Z,6.70
2019-02-09T03:12:58.243Z,5.80
2019-02-09T03:15:29.444Z,11.15
2019-02-09T03:17:57.007Z,6.10
2019-02-09T03:20:24.563Z,6.65
2019-02-09T03:22:52.118Z,7.55
2019-02-09T03:25:21.215Z,7.75
2019-02-09T03:27:48.774Z,6.97
2019-02-09T03:30:17.518Z,5.90
2019-02-09T03:32:45.103Z,6.00
2019-02-09T03:35:12.913Z,6.90
2019-02-09T03:37:40.472Z,7.25
2019-02-09T03:40:09.710Z,6.80
2019-02-09T03:42:37.293Z,6.80
2019-02-09T03:45:06.401Z,7.30
2019-02-09T03:47:34.360Z,6.55
2019-02-09T03:50:01.900Z,6.47
2019-02-09T03:52:29.472Z,6.03
2019-02-09T03:54:57.031Z,6.92
2019-02-09T03:57:24.590Z,6.90
2019-02-09T03:59:52.139Z,6.55
2019-02-09T04:02:19.695Z,8.80
2019-02-09T04:04:47.238Z,7.12
2019-02-09T04:07:14.785Z,6.92
2019-02-09T04:09:42.328Z,7.17
2019-02-09T04:12:09.888Z,5.92
2019-02-09T04:14:37.430Z,6.40
2019-02-09T04:17:04.984Z,6.58
2019-02-09T04:19:32.520Z,6.35
2019-02-09T04:22:00.087Z,6.37
2019-02-09T04:24:27.634Z,6.30
2019-02-09T04:26:55.187Z,5.97
2019-02-09T04:29:22.732Z,6.33
2019-02-09T04:31:50.284Z,6.70
2019-02-09T04:34:17.841Z,5.85
2019-02-09T04:36:45.398Z,6.55
2019-02-09T04:39:12.954Z,5.58
2019-02-09T04:41:40.513Z,5.83
2019-02-09T04:44:08.056Z,6.40
2019-02-09T04:46:35.604Z,5.67
2019-02-09T04:49:03.155Z,5.30
2019-02-09T04:51:30.696Z,6.45
2019-02-09T04:53:58.237Z,5.15
2019-02-09T04:56:25.794Z,5.62
2019-02-09T04:58:53.342Z,5.60
2019-02-09T05:01:20.894Z,5.28
2019-02-09T05:03:48.453Z,6.03
2019-02-09T05:06:16.010Z,5.42
2019-02-09T05:08:43.560Z,6.55
2019-02-09T05:11:11.100Z,5.22
2019-02-09T05:13:38.665Z,5.58
2019-02-09T05:16:06.197Z,5.22
2019-02-09T05:18:33.758Z,5.22
2019-02-09T05:21:01.312Z,5.83
2019-02-09T05:23:28.868Z,5.80
2019-02-09T05:25:56.417Z,5.03
2019-02-09T05:28:23.971Z,6.22
2019-02-09T05:30:51.519Z,5.00
2019-02-09T05:33:19.073Z,5.72
2019-02-09T05:35:46.625Z,6.75
2019-02-09T05:38:14.172Z,5.47
2019-02-09T05:40:41.725Z,6.58
2019-02-09T05:43:09.307Z,7.37
2019-02-09T05:45:36.857Z,6.28
2019-02-09T05:48:04.401Z,6.92
2019-02-09T05:50:31.963Z,6.30
2019-02-09T05:52:59.508Z,6.87
2019-02-09T05:55:27.200Z,6.85
2019-02-09T05:57:54.744Z,7.67
2019-02-09T06:00:34.248Z,6.25
2019-02-09T06:03:01.811Z,9.23
2019-02-09T06:05:29.358Z,8.40
2019-02-09T06:07:56.913Z,10.98
2019-02-09T06:10:24.477Z,10.58
2019-02-09T06:12:52.041Z,16.48
2019-02-09T06:15:20.250Z,15.75
2019-02-09T06:17:47.804Z,15.83
2019-02-09T06:20:20.168Z,15.55
2019-02-09T06:22:47.717Z,19.27
2019-02-09T06:25:15.308Z,18.65
2019-02-09T06:27:42.845Z,19.85
2019-02-09T06:30:14.748Z,21.20
2019-02-09T06:32:42.296Z,24.27
2019-02-09T06:35:10.360Z,24.07
2019-02-09T06:37:39.009Z,32.13
2019-02-09T06:40:08.478Z,27.65
2019-02-09T06:42:36.035Z,27.52
2019-02-09T06:45:05.240Z,30.17
2019-02-09T06:47:32.797Z,31.33
2019-02-09T06:50:00.348Z,33.50
2019-02-09T06:52:27.921Z,34.35
2019-02-09T06:54:57.016Z,36.08
2019-02-09T06:57:24.575Z,35.03
2019-02-09T06:59:52.146Z,40.00
2019-02-09T07:02:19.708Z,37.25
2019-02-09T07:04:47.272Z,41.77
2019-02-09T07:07:14.876Z,43.50
2019-02-09T07:09:42.437Z,43.87
2019-02-09T07:12:09.988Z,43.65
2019-02-09T07:14:37.554Z,47.15
2019-02-09T07:17:05.116Z,48.95
2019-02-09T07:19:32.676Z,54.38
2019-02-09T07:22:00.228Z,46.18
2019-02-09T07:24:27.794Z,46.42
2019-02-09T07:26:55.344Z,45.12
2019-02-09T07:29:22.916Z,45.48
2019-02-09T07:31:56.329Z,38.00
2019-02-09T07:34:19.671Z,38.90
2019-02-09T07:36:47.230Z,34.78
2019-02-09T07:39:14.992Z,34.38
2019-02-09T07:41:42.601Z,32.55
2019-02-09T07:44:10.148Z,25.88
2019-02-09T07:46:37.715Z,26.95
2019-02-09T07:49:05.281Z,28.65
2019-02-09T07:51:32.828Z,27.93
2019-02-09T07:54:00.399Z,23.27
2019-02-09T07:56:27.953Z,21.27
2019-02-09T07:58:55.522Z,22.50
2019-02-09T08:01:23.073Z,20.75
2019-02-09T08:03:50.641Z,20.40
2019-02-09T08:06:18.195Z,20.85
2019-02-09T08:08:45.766Z,20.62
2019-02-09T08:11:13.314Z,20.37
2019-02-09T08:13:40.872Z,31.85
2019-02-09T08:16:08.484Z,26.20
2019-02-09T08:18:35.986Z,28.92
2019-02-09T08:21:03.552Z,24.52
2019-02-09T08:23:31.114Z,24.63
2019-02-09T08:25:58.664Z,25.88
2019-02-09T08:28:26.233Z,22.50
2019-02-09T08:30:53.795Z,24.20
2019-02-09T08:33:21.356Z,20.55
2019-02-09T08:35:48.912Z,25.00
2019-02-09T08:38:16.466Z,21.75
2019-02-09T08:40:44.040Z,49.70
2019-02-09T08:43:11.584Z,49.80
2019-02-09T08:45:39.161Z,46.85
2019-02-09T08:48:06.732Z,58.00
2019-02-09T08:50:44.781Z,61.75
2019-02-09T08:53:12.349Z,55.55
2019-02-09T08:55:39.914Z,57.30
2019-02-09T08:58:07.472Z,57.88
2019-02-09T09:00:35.533Z,57.95
2019-02-09T09:03:03.110Z,62.83
2019-02-09T09:05:30.664Z,58.28
2019-02-09T09:07:58.229Z,58.42
2019-02-09T09:10:26.884Z,58.58
2019-02-09T09:12:54.448Z,56.77
2019-02-09T09:15:26.572Z,52.78
2019-02-09T09:17:54.140Z,55.85
2019-02-09T09:20:26.077Z,55.70
2019-02-09T09:22:53.668Z,54.10
2019-02-09T09:25:21.228Z,56.40
2019-02-09T09:27:48.777Z,55.73
2019-02-09T09:30:20.553Z,56.18
2019-02-09T09:32:48.161Z,55.67
2019-02-09T09:35:15.723Z,55.75
2019-02-09T09:37:43.280Z,55.33
2019-02-09T09:40:15.234Z,58.08
2019-02-09T09:42:42.788Z,53.55
2019-02-09T09:45:17.918Z,57.00
2019-02-09T09:47:45.473Z,53.73
2019-02-09T09:50:14.443Z,53.13
2019-02-09T09:52:42.022Z,51.50
2019-02-09T09:55:10.088Z,55.92
2019-02-09T09:57:37.641Z,55.20
2019-02-09T10:00:09.728Z,53.40
2019-02-09T10:02:37.287Z,53.75
2019-02-09T10:05:06.553Z,53.70
2019-02-09T10:07:34.108Z,54.63
2019-02-09T10:10:01.698Z,50.90
2019-02-09T10:12:29.247Z,57.78
2019-02-09T10:14:56.808Z,53.98
2019-02-09T10:17:24.361Z,50.90
2019-02-09T10:19:51.920Z,56.50
2019-02-09T10:22:19.497Z,54.00
2019-02-09T10:24:47.056Z,52.60
2019-02-09T10:27:14.613Z,55.10
2019-02-09T10:29:42.216Z,54.73
2019-02-09T10:32:09.727Z,52.75
2019-02-09T10:34:37.277Z,55.10
2019-02-09T10:37:04.842Z,54.83
2019-02-09T10:39:32.408Z,54.90
2019-02-09T10:41:59.984Z,54.58
2019-02-09T10:44:27.541Z,53.25
2019-02-09T10:46:55.104Z,53.28
2019-02-09T10:49:22.652Z,53.85
2019-02-09T10:51:50.222Z,54.53
2019-02-09T10:54:17.777Z,53.58
2019-02-09T10:56:45.338Z,50.63
2019-02-09T10:59:12.889Z,54.95
2019-02-09T11:01:40.460Z,52.83
2019-02-09T11:04:08.019Z,50.52
2019-02-09T11:06:35.584Z,53.55
2019-02-09T11:09:03.264Z,53.17
2019-02-09T11:11:30.822Z,51.10
2019-02-09T11:13:58.388Z,54.90
2019-02-09T11:16:25.949Z,54.05
2019-02-09T11:18:53.560Z,50.80
2019-02-09T11:21:21.113Z,54.13
2019-02-09T11:23:48.662Z,52.90
2019-02-09T11:26:16.229Z,51.55
2019-02-09T11:28:45.200Z,52.53
2019-02-09T11:31:14.190Z,51.80
2019-02-09T11:33:42.487Z,51.42
2019-02-09T11:36:10.398Z,50.00
2019-02-09T11:38:41.175Z,52.40
2019-02-09T11:41:11.505Z,51.28
2019-02-09T11:43:39.733Z,52.27
2019-02-09T11:46:07.280Z,51.70
2019-02-09T11:48:34.852Z,51.83
2019-02-09T11:51:02.405Z,48.45
2019-02-09T11:53:29.964Z,48.50
2019-02-09T11:55:57.524Z,49.38
2019-02-09T11:58:25.091Z,49.80
2019-02-09T12:00:52.656Z,48.78
2019-02-09T12:03:20.217Z,50.35
2019-02-09T12:05:47.815Z,48.48
2019-02-09T12:08:15.422Z,47.23
2019-02-09T12:10:42.924Z,48.13
2019-02-09T12:13:29.842Z,48.33
2019-02-09T12:15:57.433Z,47.83
2019-02-09T12:18:24.992Z,47.90
2019-02-09T12:20:52.540Z,45.92
2019-02-09T12:23:20.108Z,46.20
2019-02-09T12:25:47.675Z,45.98
2019-02-09T12:28:15.268Z,46.98
2019-02-09T12:30:42.788Z,42.38
2019-02-09T12:33:10.962Z,45.45
2019-02-09T12:35:38.519Z,45.33
2019-02-09T12:38:06.689Z,41.42
2019-02-09T12:40:34.549Z,43.48
2019-02-09T12:43:02.110Z,45.33
2019-02-09T12:45:31.044Z,44.30
2019-02-09T12:47:58.579Z,43.60
2019-02-09T12:50:26.735Z,43.73
2019-02-09T12:52:54.301Z,43.75
2019-02-09T12:55:21.864Z,42.98
2019-02-09T12:57:49.421Z,44.20
2019-02-09T13:00:18.276Z,42.25
2019-02-09T13:02:45.850Z,43.08
2019-02-09T13:05:13.403Z,41.65
2019-02-09T13:07:40.967Z,41.23
2019-02-09T13:10:10.091Z,41.42
2019-02-09T13:12:37.640Z,41.90
2019-02-09T13:15:06.761Z,40.80
2019-02-09T13:17:34.311Z,40.52
2019-02-09T13:20:01.908Z,40.70
2019-02-09T13:22:29.462Z,39.35
2019-02-09T13:24:57.036Z,41.02
2019-02-09T13:27:24.597Z,38.28
2019-02-09T13:29:52.151Z,38.73
2019-02-09T13:32:19.715Z,37.53
2019-02-09T13:34:47.277Z,37.28
2019-02-09T13:37:14.853Z,36.93
2019-02-09T13:39:42.427Z,37.98
2019-02-09T13:42:09.999Z,36.42
2019-02-09T13:44:37.570Z,36.95
2019-02-09T13:47:05.144Z,36.95
2019-02-09T13:49:32.702Z,35.75
2019-02-09T13:52:00.274Z,36.13
2019-02-09T13:54:27.851Z,35.75
2019-02-09T13:56:55.402Z,34.48
2019-02-09T13:59:22.969Z,35.75
2019-02-09T14:01:50.544Z,35.45
2019-02-09T14:04:18.100Z,34.23
2019-02-09T14:06:45.665Z,35.55
2019-02-09T14:09:13.220Z,34.38
2019-02-09T14:11:40.788Z,33.30
2019-02-09T14:14:08.346Z,34.30
2019-02-09T14:16:38.824Z,32.63
2019-02-09T14:19:05.130Z,34.08
2019-02-09T14:21:32.680Z,32.67
2019-02-09T14:24:00.245Z,32.78
2019-02-09T14:26:27.806Z,33.20
2019-02-09T14:28:55.368Z,30.70
2019-02-09T14:31:22.928Z,30.55
2019-02-09T14:33:55.026Z,33.33
2019-02-09T14:36:19.703Z,30.55
2019-02-09T14:38:47.264Z,31.10
2019-02-09T14:41:14.825Z,31.77
2019-02-09T14:43:42.382Z,30.82
2019-02-09T14:46:09.955Z,30.17
2019-02-09T14:48:39.953Z,30.90
2019-02-09T14:51:12.521Z,29.45
2019-02-09T14:53:40.461Z,29.35
2019-02-09T14:56:08.038Z,29.70
2019-02-09T14:58:35.585Z,28.07
2019-02-09T15:01:03.154Z,30.00
2019-02-09T15:03:30.929Z,27.52
2019-02-09T15:05:58.629Z,27.27
2019-02-09T15:08:26.180Z,27.77
2019-02-09T15:10:53.738Z,28.52
2019-02-09T15:13:21.300Z,26.93
2019-02-09T15:15:51.251Z,27.37
2019-02-09T15:18:18.813Z,28.42
2019-02-09T15:20:51.023Z,27.30
2019-02-09T15:23:18.576Z,28.83
2019-02-09T15:25:46.134Z,26.90
2019-02-09T15:28:13.697Z,27.15
2019-02-09T15:30:41.436Z,26.30
2019-02-09T15:33:08.986Z,26.55
2019-02-09T15:35:36.647Z,26.05
2019-02-09T15:38:04.206Z,26.00
2019-02-09T15:40:31.769Z,26.97
2019-02-09T15:42:59.330Z,24.10
2019-02-09T15:45:26.901Z,24.85
2019-02-09T15:47:54.454Z,22.60
2019-02-09T15:50:22.012Z,25.95
2019-02-09T15:52:49.670Z,25.08
2019-02-09T15:55:18.791Z,24.82
2019-02-09T15:57:46.341Z,24.37
2019-02-09T16:00:15.481Z,23.77
2019-02-09T16:02:43.043Z,23.70
2019-02-09T16:05:11.592Z,23.98
2019-02-09T16:07:39.158Z,23.25
2019-02-09T16:10:08.285Z,24.40
2019-02-09T16:12:35.844Z,23.05
2019-02-09T16:15:04.202Z,22.98
2019-02-09T16:17:31.810Z,21.80
2019-02-09T16:19:59.382Z,22.93
2019-02-09T16:22:26.935Z,22.55
2019-02-09T16:24:54.501Z,21.05
2019-02-09T16:27:22.066Z,22.25
2019-02-09T16:29:49.628Z,21.87
2019-02-09T16:32:17.191Z,20.48
2019-02-09T16:34:44.756Z,21.27
2019-02-09T16:37:12.301Z,20.95
2019-02-09T16:39:39.870Z,21.42
2019-02-09T16:42:07.432Z,21.10
2019-02-09T16:44:35.002Z,21.35
2019-02-09T16:47:02.566Z,20.50
2019-02-09T16:49:30.126Z,21.23
2019-02-09T16:51:57.724Z,20.65
2019-02-09T16:54:25.285Z,20.37
2019-02-09T16:56:52.832Z,20.10
2019-02-09T16:59:20.394Z,20.02
2019-02-09T17:01:47.962Z,18.82
2019-02-09T17:04:15.527Z,19.98
2019-02-09T17:06:43.083Z,20.48
2019-02-09T17:09:10.656Z,20.00
2019-02-09T17:11:38.214Z,19.92
2019-02-09T17:14:05.774Z,21.00
2019-02-09T17:16:33.324Z,20.10
2019-02-09T17:19:00.893Z,20.37
2019-02-09T17:21:28.471Z,20.30
2019-02-09T17:23:56.019Z,19.92
2019-02-09T17:26:23.616Z,19.75
2019-02-09T17:28:56.396Z,18.12
2019-02-09T17:31:24.649Z,18.55
2019-02-09T17:33:52.248Z,20.43
2019-02-09T17:36:19.820Z,18.55
2019-02-09T17:44:16.356Z,18.25
2019-02-09T17:46:43.911Z,18.15
2019-02-09T17:49:11.456Z,20.90
2019-02-09T17:51:39.022Z,18.60
2019-02-09T17:54:06.575Z,18.40
2019-02-09T17:59:15.936Z,18.57
2019-02-09T18:01:52.402Z,18.07
2019-02-09T18:04:19.952Z,18.87
2019-02-09T18:06:47.508Z,20.10
2019-02-09T18:09:15.072Z,27.42
2019-02-09T18:11:42.625Z,26.02
2019-02-09T18:14:10.191Z,24.60
2019-02-09T21:05:36.991Z,16.23
2019-02-09T21:08:04.715Z,15.95
2019-02-09T21:12:50.889Z,15.98
2019-02-09T21:15:20.001Z,14.80
2019-02-09T21:17:47.577Z,15.35
2019-02-09T21:20:15.127Z,15.72
2019-02-09T21:22:42.693Z,15.15
2019-02-09T21:25:12.079Z,13.22
2019-02-09T21:27:39.640Z,15.75
2019-02-09T21:30:11.484Z,14.58
2019-02-09T21:32:40.361Z,15.35
2019-02-09T21:35:09.500Z,15.43
2019-02-09T21:37:37.061Z,14.50
2019-02-09T21:40:08.936Z,13.00
2019-02-09T21:42:36.498Z,15.80
2019-02-09T21:45:05.640Z,14.60
2019-02-09T21:47:33.179Z,13.43
2019-02-09T21:50:00.748Z,13.95
2019-02-09T21:52:28.300Z,18.73
2019-02-09T21:54:55.858Z,13.00
2019-02-09T21:57:23.416Z,14.90
2019-02-09T21:59:51.251Z,13.43
2019-02-09T22:02:18.947Z,13.85
2019-02-09T22:04:46.500Z,13.93
2019-02-09T22:07:14.060Z,14.98
2019-02-09T22:09:41.607Z,14.03
2019-02-09T22:12:09.221Z,13.83
2019-02-09T22:17:11.063Z,12.75
2019-02-09T22:21:18.747Z,15.60
2019-02-09T22:25:26.731Z,13.83
2019-02-09T22:29:34.293Z,11.93
2019-02-09T22:33:41.855Z,14.55
2019-02-09T22:37:49.400Z,13.38
2019-02-09T22:41:57.005Z,13.00
2019-02-09T22:46:04.571Z,13.65
2019-02-09T22:50:18.953Z,14.00
2019-02-09T22:54:22.940Z,14.13
2019-02-09T22:58:30.457Z,13.62
2019-02-09T23:02:38.015Z,12.65
2019-02-09T23:06:52.520Z,13.25
2019-02-09T23:10:56.338Z,11.18
2019-02-09T23:15:05.299Z,14.50
2019-02-09T23:19:12.843Z,13.00
2019-02-09T23:23:20.397Z,13.68
2019-02-09T23:27:27.959Z,16.35
2019-02-09T23:31:35.526Z,15.80
2019-02-09T23:35:43.072Z,15.72
2019-02-09T23:39:50.631Z,14.47
2019-02-09T23:43:58.192Z,14.28
2019-02-09T23:48:05.756Z,14.03
2019-02-09T23:52:13.321Z,15.13
2019-02-09T23:56:20.889Z,15.00
